Time;durP1;ratioP1;P1;durP2;ratioP2;P2;SDS_P1;SDS_P2;PMS_P1;PMS_P2;Temp;Humidity;BMP_temperature;BMP_pressure;BME280_temperature;BME280_humidity;BME280_pressure;Samples;Min_cycle;Max_cycle;Signal;HPM_P1;HPM_P2
2022/09/02 00:01:28;;;;;;;8.30;5.47;;;;;;;13.97;61.45;100004.21;1713609;83;21578;-62
2022/09/02 00:04:01;;;;;;;8.20;5.17;;;;;;;13.97;61.27;100003.37;1703759;83;21511;-62
2022/09/02 00:06:28;;;;;;;6.53;5.10;;;;;;;13.92;61.57;100006.70;1709203;83;21625;-63
2022/09/02 00:08:55;;;;;;;7.30;5.08;;;;;;;13.82;61.92;100000.59;1693661;83;21828;-62
2022/09/02 00:11:24;;;;;;;5.30;4.77;;;;;;;13.77;61.82;100007.89;1697475;83;21482;-62
2022/09/02 00:13:51;;;;;;;7.62;5.30;;;;;;;13.73;61.94;100003.69;1748223;80;21441;-62
2022/09/02 00:16:18;;;;;;;7.22;5.08;;;;;;;13.68;61.92;100007.02;1754212;80;21557;-62
2022/09/02 00:18:44;;;;;;;5.78;5.17;;;;;;;13.61;62.37;100010.42;1752164;80;21018;-62
2022/09/02 00:21:12;;;;;;;6.22;4.62;;;;;;;13.58;63.12;100012.35;1753946;80;21793;-62
2022/09/02 00:23:40;;;;;;;6.87;5.33;;;;;;;13.54;63.88;100012.12;1760128;80;20962;-62
2022/09/02 00:26:06;;;;;;;5.25;4.70;;;;;;;13.56;63.98;100012.89;1751510;80;21507;-62
2022/09/02 00:28:34;;;;;;;;;;;;;;;13.53;64.48;100020.99;1751484;80;21594;-61
2022/09/02 00:31:01;;;;;;;9.58;4.20;;;;;;;13.51;67.83;100025.50;1752568;80;20476;-62
2022/09/02 00:33:27;;;;;;;6.50;5.08;;;;;;;13.46;64.91;100023.54;1722841;82;21867;-62
2022/09/02 00:35:54;;;;;;;6.93;4.70;;;;;;;13.40;65.31;100016.77;1708184;82;20987;-62
2022/09/02 00:38:21;;;;;;;6.62;5.28;;;;;;;13.37;65.39;100021.75;1696619;84;21563;-62
2022/09/02 00:40:49;;;;;;;8.07;5.37;;;;;;;13.35;65.34;100024.89;1748704;80;21578;-62
2022/09/02 00:43:25;;;;;;;7.33;5.97;;;;;;;13.33;65.31;100028.55;1750055;80;21781;-62
2022/09/02 00:45:53;;;;;;;6.45;5.00;;;;;;;13.34;65.54;100027.64;1753998;80;22121;-62
2022/09/02 00:48:20;;;;;;;6.75;5.70;;;;;;;13.36;65.47;100033.70;1744535;80;21594;-63
2022/09/02 00:50:46;;;;;;;7.50;5.67;;;;;;;13.35;65.75;100031.97;1755655;80;21565;-63
2022/09/02 00:53:13;;;;;;;9.53;6.17;;;;;;;13.33;65.85;100033.83;1758764;80;21409;-63
2022/09/02 00:55:46;;;;;;;8.75;6.72;;;;;;;13.29;65.53;100034.88;1764404;80;21455;-61
2022/09/02 00:58:19;;;;;;;7.33;6.00;;;;;;;13.24;65.51;100034.64;1768973;80;21807;-61
2022/09/02 01:00:47;;;;;;;9.23;5.95;;;;;;;13.24;65.54;100039.05;1765718;80;21612;-63
2022/09/02 01:03:17;;;;;;;10.40;6.40;;;;;;;13.24;65.50;100036.41;1753056;80;21408;-62
2022/09/02 01:05:46;;;;;;;7.53;6.03;;;;;;;13.20;65.42;100043.64;1764233;80;21463;-62
2022/09/02 01:08:18;;;;;;;7.60;5.78;;;;;;;13.13;65.43;100043.98;1720995;80;21546;-62
2022/09/02 01:10:46;;;;;;;7.85;6.33;;;;;;;13.05;65.23;100049.17;1762916;80;21755;-62
2022/09/02 01:13:17;;;;;;;8.05;6.33;;;;;;;13.00;65.29;100048.52;1753562;80;21451;-62
2022/09/02 01:15:54;;;;;;;8.63;6.67;;;;;;;12.97;65.26;100054.41;1754267;80;21451;-61
2022/09/02 01:18:27;;;;;;;10.38;7.15;;;;;;;12.93;65.53;100047.56;1748783;80;21551;-60
2022/09/02 01:20:54;;;;;;;10.43;7.87;;;;;;;12.85;65.66;100047.45;1764012;80;21447;-61
2022/09/02 01:23:21;;;;;;;11.15;8.03;;;;;;;12.86;65.72;100050.93;1753469;80;22113;-61
2022/09/02 01:25:49;;;;;;;12.75;7.70;;;;;;;12.94;66.14;100051.90;1754645;80;21553;-61
2022/09/02 01:28:17;;;;;;;11.88;6.95;;;;;;;12.94;66.14;100051.90;1755933;80;21620;-61
2022/09/02 01:30:50;;;;;;;11.57;8.28;;;;;;;12.92;66.31;100050.67;1764386;80;21389;-61
2022/09/02 01:33:18;;;;;;;11.03;7.00;;;;;;;12.91;67.22;100057.34;1726731;82;21610;-61
2022/09/02 01:35:45;;;;;;;9.45;7.67;;;;;;;12.94;67.85;100064.66;1756829;80;21801;-61
2022/09/02 01:38:13;;;;;;;11.63;7.08;;;;;;;12.90;69.15;100063.05;1764190;80;21431;-61
2022/09/02 01:40:40;;;;;;;10.38;7.37;;;;;;;12.80;70.01;100069.69;1749050;80;21427;-61
2022/09/02 01:43:10;;;;;;;10.93;7.58;;;;;;;12.76;70.48;100067.65;1754978;80;21613;-61
2022/09/02 01:45:38;;;;;;;11.25;7.33;;;;;;;12.75;70.81;100072.99;1750707;80;21019;-61
2022/09/02 01:48:06;;;;;;;9.18;7.05;;;;;;;12.76;70.04;100072.92;1760200;80;21528;-60
2022/09/02 01:50:34;;;;;;;12.40;8.23;;;;;;;12.71;69.62;100072.74;1747440;80;21496;-61
2022/09/02 01:53:02;;;;;;;11.78;7.22;;;;;;;12.67;69.16;100073.34;1722264;80;21582;-60
2022/09/02 01:55:31;;;;;;;11.70;7.78;;;;;;;12.66;68.74;100080.87;1749049;80;21519;-62
2022/09/02 01:58:00;;;;;;;9.40;7.72;;;;;;;12.65;68.94;100079.99;1749493;80;21093;-62
2022/09/02 02:00:27;;;;;;;11.78;7.95;;;;;;;12.62;68.50;100077.95;1747553;80;21846;-62
2022/09/02 02:02:55;;;;;;;9.95;7.15;;;;;;;12.63;68.41;100087.59;1752029;80;20946;-62
2022/09/02 02:05:22;;;;;;;11.15;7.60;;;;;;;12.63;68.03;100084.95;1741762;80;21495;-62
2022/09/02 02:07:49;;;;;;;10.05;7.33;;;;;;;12.64;67.98;100082.25;1744224;80;21492;-63
2022/09/02 02:10:17;;;;;;;12.28;7.03;;;;;;;12.69;68.07;100089.11;1744561;80;21456;-62
2022/09/02 02:12:44;;;;;;;9.85;7.60;;;;;;;12.69;67.38;100085.99;1748422;80;21784;-63
2022/09/02 02:15:15;;;;;;;8.73;6.90;;;;;;;12.68;67.39;100091.33;1753196;80;21519;-63
2022/09/02 02:17:43;;;;;;;8.23;6.45;;;;;;;12.68;67.68;100082.09;1748375;80;21512;-63
2022/09/02 02:20:11;;;;;;;9.83;6.47;;;;;;;12.65;67.54;100083.10;1743280;80;21612;-63
2022/09/02 02:22:38;;;;;;;9.38;6.28;;;;;;;12.58;67.52;100093.52;1746755;80;21550;-62
2022/09/02 02:25:06;;;;;;;8.35;6.30;;;;;;;12.55;67.34;100093.68;1761031;80;22099;-62
2022/09/02 02:27:33;;;;;;;8.48;6.72;;;;;;;12.51;67.44;100090.75;1743577;80;21104;-62
2022/09/02 02:30:04;;;;;;;10.15;6.47;;;;;;;12.45;67.50;100092.76;1738436;80;21464;-64
2022/09/02 02:32:31;;;;;;;7.58;5.92;;;;;;;12.39;67.67;100090.84;1753676;80;21431;-62
2022/09/02 02:34:58;;;;;;;12.65;6.60;;;;;;;12.35;68.05;100098.02;1759249;80;20994;-62
2022/09/02 02:37:26;;;;;;;7.57;5.47;;;;;;;12.31;69.80;100088.53;1736683;80;21623;-62
2022/09/02 02:39:52;;;;;;;11.15;6.20;;;;;;;12.31;69.80;100088.53;1750142;80;21949;-63
2022/09/02 02:42:19;;;;;;;7.83;5.80;;;;;;;12.34;71.04;100096.76;1741360;80;21529;-62
2022/09/02 02:44:46;;;;;;;9.75;5.62;;;;;;;12.32;71.52;100095.53;1737068;80;21491;-63
2022/09/02 02:47:13;;;;;;;9.60;6.25;;;;;;;12.29;72.54;100096.12;1752464;80;21034;-62
2022/09/02 02:49:41;;;;;;;9.98;6.28;;;;;;;12.30;72.90;100097.81;1753544;80;21743;-62
2022/09/02 02:52:09;;;;;;;8.58;6.30;;;;;;;12.36;72.25;100099.74;1760129;80;21525;-62
2022/09/02 02:54:37;;;;;;;10.05;6.10;;;;;;;12.37;72.26;100101.91;1747954;80;21584;-62
2022/09/02 02:57:04;;;;;;;8.40;6.10;;;;;;;12.37;71.77;100097.48;1751936;80;21499;-62
2022/09/02 02:59:32;;;;;;;6.87;5.78;;;;;;;12.38;71.28;100095.73;1757393;80;20934;-62
2022/09/02 03:01:59;;;;;;;8.93;6.05;;;;;;;12.38;71.54;100099.69;1762272;80;21756;-62
2022/09/02 03:04:26;;;;;;;11.22;6.58;;;;;;;12.42;71.36;100111.34;1752815;80;21527;-62
2022/09/02 03:06:53;;;;;;;8.90;6.60;;;;;;;12.43;71.65;100111.75;1762226;80;21508;-63
2022/09/02 03:09:20;;;;;;;7.62;6.00;;;;;;;12.47;71.41;100111.16;1764660;80;21565;-62
2022/09/02 03:11:47;;;;;;;9.20;6.62;;;;;;;12.51;70.99;100111.86;1756566;80;21557;-62
2022/09/02 03:14:15;;;;;;;7.00;5.78;;;;;;;12.50;71.26;100118.07;1756857;80;21841;-62
2022/09/02 03:16:43;;;;;;;9.93;6.08;;;;;;;12.44;71.15;100123.15;1764346;80;21664;-61
2022/09/02 03:19:12;;;;;;;7.90;5.80;;;;;;;12.42;71.61;100119.25;1761683;80;21498;-62
2022/09/02 03:21:41;;;;;;;7.72;5.00;;;;;;;12.41;72.27;100122.83;1762447;80;21558;-62
2022/09/02 03:24:09;;;;;;;8.85;6.00;;;;;;;12.39;72.72;100127.28;1758291;80;20981;-62
2022/09/02 03:26:37;;;;;;;8.88;5.60;;;;;;;12.45;72.84;100131.00;1766774;80;21537;-61
2022/09/02 03:29:03;;;;;;;9.90;5.42;;;;;;;12.52;73.16;100132.05;1750728;80;21526;-61
2022/09/02 03:31:31;;;;;;;7.92;5.37;;;;;;;12.60;72.25;100135.20;1765353;79;21526;-61
2022/09/02 03:33:58;;;;;;;8.90;5.92;;;;;;;12.59;71.94;100138.30;1764023;80;21419;-61
2022/09/02 03:36:32;;;;;;;6.62;4.72;;;;;;;12.61;71.34;100140.41;1760862;80;21436;-61
2022/09/02 03:38:59;;;;;;;7.20;5.25;;;;;;;12.62;70.92;100141.27;1758765;80;21458;-61
2022/09/02 03:41:27;;;;;;;6.78;5.42;;;;;;;12.60;70.95;100140.47;1751479;80;21416;-61
2022/09/02 03:43:53;;;;;;;8.08;5.53;;;;;;;12.59;70.75;100150.64;1754424;80;21570;-61
2022/09/02 03:46:20;;;;;;;6.47;5.03;;;;;;;12.59;70.26;100151.97;1753927;80;21641;-61
2022/09/02 03:48:50;;;;;;;5.60;4.55;;;;;;;12.62;69.87;100155.33;1757495;80;22428;-61
2022/09/02 03:51:19;;;;;;;8.13;5.10;;;;;;;12.66;70.01;100166.61;1752085;80;21766;-62
2022/09/02 03:53:46;;;;;;;7.92;5.58;;;;;;;12.64;69.84;100168.46;1752005;80;21541;-61
2022/09/02 03:56:14;;;;;;;8.98;5.20;;;;;;;12.66;70.18;100170.57;1745087;80;21448;-60
2022/09/02 03:58:43;;;;;;;7.05;4.97;;;;;;;12.69;70.10;100166.93;1757290;80;21510;-61
2022/09/02 04:01:15;;;;;;;7.15;4.75;;;;;;;12.71;70.32;100169.88;1720460;82;21570;-60
2022/09/02 04:03:42;;;;;;;7.47;5.12;;;;;;;12.75;71.45;100175.45;1720377;82;21824;-62
2022/09/02 04:06:11;;;;;;;6.05;4.83;;;;;;;12.83;72.54;100173.33;1738717;80;21512;-62
2022/09/02 04:08:40;;;;;;;5.62;4.53;;;;;;;12.94;72.48;100173.30;1749616;80;21578;-62
2022/09/02 04:11:08;;;;;;;6.75;5.12;;;;;;;13.01;72.80;100181.35;1751827;80;21541;-62
2022/09/02 04:13:36;;;;;;;6.37;5.08;;;;;;;13.12;72.87;100182.20;1753584;80;21547;-59
2022/09/02 04:16:12;;;;;;;8.65;5.22;;;;;;;13.18;71.98;100183.23;1746679;80;21835;-61
2022/09/02 04:18:42;;;;;;;7.53;5.55;;;;;;;13.22;71.66;100180.41;1750532;80;21421;-62
2022/09/02 04:21:10;;;;;;;6.85;5.90;;;;;;;13.31;71.60;100181.78;1717907;82;21557;-60
2022/09/02 04:23:37;;;;;;;;;;;;;;;13.40;71.29;100189.30;1753600;80;21535;-63
2022/09/02 04:26:11;;;;;;;9.78;6.62;;;;;;;13.47;73.11;100191.20;1757500;80;20228;-63
2022/09/02 04:28:39;;;;;;;10.10;6.78;;;;;;;13.48;70.59;100195.55;1740016;80;21795;-63
2022/09/02 04:31:08;;;;;;;10.33;7.03;;;;;;;13.56;69.91;100192.10;1751544;80;22517;-62
2022/09/02 04:33:36;;;;;;;11.10;6.97;;;;;;;13.62;69.85;100199.73;1753652;80;21438;-64
2022/09/02 04:36:07;;;;;;;9.33;7.13;;;;;;;13.67;69.76;100192.90;1742341;80;21635;-64
2022/09/02 04:38:35;;;;;;;12.45;8.08;;;;;;;13.79;69.09;100195.45;1758436;80;21599;-63
2022/09/02 04:41:24;;;;;;;12.37;8.08;;;;;;;13.87;68.60;100197.25;1749366;80;21757;-63
2022/09/02 04:43:58;;;;;;;16.40;10.30;;;;;;;13.98;68.26;100194.11;1729162;80;21668;-62
2022/09/02 04:46:26;;;;;;;19.00;10.45;;;;;;;14.06;68.04;100195.06;1742651;80;21535;-62
2022/09/02 04:48:54;;;;;;;28.77;15.63;;;;;;;14.13;68.12;100201.29;1742716;80;21610;-66
2022/09/02 04:51:23;;;;;;;39.08;23.80;;;;;;;14.22;67.84;100198.64;1727595;80;21486;-62
2022/09/02 04:53:52;;;;;;;47.58;26.12;;;;;;;14.30;67.61;100197.82;1756255;80;21869;-62
2022/09/02 04:56:23;;;;;;;57.27;31.23;;;;;;;14.37;67.34;100201.88;1755755;80;21451;-62
2022/09/02 04:58:50;;;;;;;58.87;34.30;;;;;;;14.45;66.78;100208.55;1746993;80;21015;-64
2022/09/02 05:01:23;;;;;;;61.40;35.70;;;;;;;14.55;66.79;100205.86;1753513;80;21598;-62
2022/09/02 05:03:52;;;;;;;67.70;37.00;;;;;;;14.59;66.56;100208.28;1759464;80;21423;-62
2022/09/02 05:06:25;;;;;;;63.28;38.48;;;;;;;14.68;65.89;100201.68;1745311;80;21870;-63
2022/09/02 05:08:55;;;;;;;65.80;38.95;;;;;;;14.76;66.11;100199.48;1744057;80;21507;-60
2022/09/02 05:11:27;;;;;;;70.40;40.70;;;;;;;14.81;66.28;100198.42;1753512;80;21530;-60
2022/09/02 05:13:57;;;;;;;75.47;43.60;;;;;;;14.91;66.16;100208.44;1754776;80;21683;-63
2022/09/02 05:16:28;;;;;;;69.70;42.55;;;;;;;15.02;65.88;100203.91;1740967;80;21899;-63
2022/09/02 05:18:56;;;;;;;81.32;45.98;;;;;;;15.16;65.42;100200.52;1729365;80;21962;-63
2022/09/02 05:21:23;;;;;;;71.15;44.25;;;;;;;15.25;65.09;100202.69;1753370;80;21057;-60
2022/09/02 05:23:51;;;;;;;73.50;44.23;;;;;;;15.32;65.09;100204.55;1745734;80;21566;-60
2022/09/02 05:26:18;;;;;;;;;;;;;;;15.42;65.04;100206.23;1758369;80;21516;-62
2022/09/02 05:28:46;;;;;;;80.60;43.55;;;;;;;15.54;64.54;100206.44;1743727;80;20880;-63
2022/09/02 05:31:16;;;;;;;72.30;42.45;;;;;;;15.57;64.12;100204.92;1748568;80;21886;-63
2022/09/02 05:33:43;;;;;;;72.37;44.30;;;;;;;15.67;63.94;100211.05;1749483;80;21637;-63
2022/09/02 05:36:13;;;;;;;78.25;45.98;;;;;;;15.77;63.56;100210.97;1757821;80;21472;-63
2022/09/02 05:38:41;;;;;;;69.12;43.10;;;;;;;15.84;63.43;100216.33;1756462;80;21119;-63
2022/09/02 05:41:09;;;;;;;70.00;43.55;;;;;;;15.93;63.08;100211.81;1756615;80;21582;-63
2022/09/02 05:43:38;;;;;;;69.80;41.88;;;;;;;16.06;63.03;100215.11;1753173;80;21803;-63
2022/09/02 05:46:06;;;;;;;66.37;40.48;;;;;;;16.21;62.80;100217.37;1744424;80;28811;-63
2022/09/02 05:51:22;;;;;;;71.65;40.28;;;;;;;16.41;62.21;100214.91;1748807;80;21592;-65
2022/09/02 05:53:52;;;;;;;;;;;;;;;16.53;62.00;100220.81;1759855;80;21543;-63
2022/09/02 05:56:20;;;;;;;63.00;38.60;;;;;;;16.66;61.43;100216.48;1760783;80;21763;-63
2022/09/02 05:58:48;;;;;;;66.28;39.35;;;;;;;16.70;61.80;100217.17;1754753;80;21448;-63
2022/09/02 06:01:17;;;;;;;72.70;42.03;;;;;;;16.79;61.50;100227.73;1737538;80;21635;-63
2022/09/02 06:03:44;;;;;;;70.50;44.10;;;;;;;16.89;60.87;100219.61;1752253;80;21405;-63
2022/09/02 06:06:11;;;;;;;77.62;47.10;;;;;;;16.92;60.22;100220.77;1756018;80;21601;-63
2022/09/02 06:08:40;;;;;;;77.42;48.68;;;;;;;16.96;60.06;100218.78;1753016;80;21806;-63
2022/09/02 06:11:08;;;;;;;77.55;48.78;;;;;;;17.07;60.22;100222.49;1752970;80;27154;-63
2022/09/02 06:13:39;;;;;;;84.37;51.02;;;;;;;17.18;59.48;100228.94;1749070;80;21511;-64
2022/09/02 06:16:12;;;;;;;82.30;47.62;;;;;;;17.30;59.11;100234.84;1751629;80;21483;-63
2022/09/02 06:18:38;;;;;;;74.85;47.38;;;;;;;17.40;58.84;100228.48;1723083;80;21014;-64
2022/09/02 06:21:05;;;;;;;67.12;43.38;;;;;;;17.54;58.50;100235.14;1743168;80;21792;-65
2022/09/02 06:23:35;;;;;;;64.92;38.85;;;;;;;17.62;57.50;100231.52;1754425;80;21073;-63
2022/09/02 06:26:02;;;;;;;62.03;38.53;;;;;;;17.74;57.18;100235.68;1757747;80;21582;-62
2022/09/02 06:28:29;;;;;;;58.92;36.17;;;;;;;17.82;56.53;100232.05;1750907;80;21463;-60
2022/09/02 06:30:56;;;;;;;;;;;;;;;17.92;56.06;100240.35;1745402;80;21530;-60
2022/09/02 06:33:23;;;;;;;51.68;32.70;;;;;;;18.02;54.24;100232.14;1752201;80;21787;-60
2022/09/02 06:35:50;;;;;;;40.83;27.57;;;;;;;18.07;55.20;100233.55;1756830;80;21511;-61
2022/09/02 06:38:19;;;;;;;39.45;23.87;;;;;;;18.21;54.90;100235.80;1744405;80;21051;-62
2022/09/02 06:40:49;;;;;;;22.40;14.60;;;;;;;18.33;53.65;100242.11;1744975;79;21601;-66
2022/09/02 06:43:17;;;;;;;16.82;11.03;;;;;;;18.39;53.46;100240.41;1747898;80;21487;-65
2022/09/02 06:46:05;;;;;;;18.20;11.95;;;;;;;18.46;52.29;100236.39;1716973;82;21531;-63
2022/09/02 06:48:32;;;;;;;;;;;;;;;18.54;51.99;100242.53;1750113;80;21123;-63
2022/09/02 06:51:00;;;;;;;12.73;10.15;;;;;;;18.65;49.80;100242.19;1736645;80;20452;-64
2022/09/02 06:53:28;;;;;;;17.62;11.70;;;;;;;18.71;51.06;100242.73;1732298;80;22833;-64
2022/09/02 06:55:54;;;;;;;26.00;15.63;;;;;;;18.79;50.79;100249.72;1739572;80;21132;-64
2022/09/02 06:58:21;;;;;;;22.17;15.37;;;;;;;18.88;50.29;100249.63;1731707;80;21996;-63
2022/09/02 07:00:48;;;;;;;23.98;15.30;;;;;;;18.88;49.68;100253.62;1736308;80;21054;-63
2022/09/02 07:06:09;;;;;;;22.87;13.50;;;;;;;19.05;49.25;100255.98;1733268;80;20995;-64
2022/09/02 07:08:40;;;;;;;19.30;13.83;;;;;;;19.16;48.55;100254.77;1713979;81;21523;-64
2022/09/02 07:11:19;;;;;;;20.75;14.65;;;;;;;19.26;48.19;100250.97;1728721;80;21636;-64
2022/09/02 07:13:46;;;;;;;22.13;14.53;;;;;;;19.37;47.96;100250.23;1674336;83;21545;-66
2022/09/02 07:16:15;;;;;;;28.73;18.17;;;;;;;19.46;47.66;100245.59;1739178;80;21447;-66
2022/09/02 07:18:42;;;;;;;29.15;18.50;;;;;;;19.57;47.80;100254.15;1733275;79;21531;-68
2022/09/02 07:21:10;;;;;;;25.57;19.00;;;;;;;19.71;47.28;100255.86;1731743;82;21582;-63
2022/09/02 07:23:39;;;;;;;29.27;17.37;;;;;;;19.86;46.74;100249.94;1732502;80;21806;-62
2022/09/02 07:26:14;;;;;;;32.78;19.82;;;;;;;19.97;46.58;100250.02;1738186;80;21014;-63
2022/09/02 07:28:42;;;;;;;31.45;19.90;;;;;;;20.04;46.24;100249.91;1739309;80;21547;-63
2022/09/02 07:31:14;;;;;;;26.95;20.00;;;;;;;20.13;45.88;100257.75;1728440;80;21518;-62
2022/09/02 07:33:43;;;;;;;27.58;18.62;;;;;;;20.26;45.52;100260.38;1738322;80;21604;-63
2022/09/02 07:36:11;;;;;;;31.10;18.40;;;;;;;20.35;45.58;100262.38;1736380;80;21926;-64
2022/09/02 07:38:39;;;;;;;23.07;17.45;;;;;;;20.47;44.99;100253.92;1734555;80;21632;-65
2022/09/02 07:41:08;;;;;;;24.32;16.37;;;;;;;20.59;44.36;100251.19;1733804;80;20998;-64
2022/09/02 07:43:36;;;;;;;28.47;17.42;;;;;;;20.66;43.75;100248.09;1743902;80;21069;-64
2022/09/02 07:46:04;;;;;;;27.35;21.27;;;;;;;20.71;43.26;100249.93;1733572;80;21621;-63
2022/09/02 07:48:32;;;;;;;24.77;18.02;;;;;;;20.77;43.05;100248.13;1733064;80;21798;-63
2022/09/02 07:50:59;;;;;;;23.42;18.52;;;;;;;20.74;42.08;100251.89;1740778;80;21544;-64
2022/09/02 07:53:27;;;;;;;32.78;23.32;;;;;;;20.68;41.88;100249.69;1749863;80;21573;-64
2022/09/02 07:55:54;;;;;;;34.03;23.33;;;;;;;20.82;41.80;100253.98;1749719;80;21540;-64
2022/09/02 07:58:21;;;;;;;40.15;26.15;;;;;;;20.82;41.80;100253.98;1747650;80;21530;-66
2022/09/02 08:00:49;;;;;;;56.95;35.68;;;;;;;20.87;41.31;100247.81;1749101;80;21938;-65
2022/09/02 08:03:16;;;;;;;;;;;;;;;20.90;41.64;100250.23;1755690;80;21505;-63
2022/09/02 08:05:45;;;;;;;50.43;34.92;;;;;;;20.99;39.57;100248.68;1749449;80;20736;-64
2022/09/02 08:08:15;;;;;;;49.30;33.63;;;;;;;21.02;41.35;100251.13;1755331;80;21683;-68
2022/09/02 08:10:42;;;;;;;39.08;26.33;;;;;;;21.05;40.66;100249.53;1749705;80;21569;-67
2022/09/02 08:13:09;;;;;;;45.17;26.82;;;;;;;21.10;39.89;100247.37;1755765;80;21905;-65
2022/09/02 08:15:37;;;;;;;35.38;24.27;;;;;;;21.15;39.62;100245.20;1750761;80;21076;-65
2022/09/02 08:18:05;;;;;;;29.55;21.02;;;;;;;21.17;39.15;100229.02;1745590;80;21488;-65
2022/09/02 08:20:32;;;;;;;55.35;35.92;;;;;;;21.24;39.29;100231.58;1745104;80;20974;-66
2022/09/02 08:22:59;;;;;;;56.88;39.85;;;;;;;21.31;39.29;100226.62;1753226;80;21521;-65
2022/09/02 08:25:25;;;;;;;56.40;39.48;;;;;;;21.32;39.28;100230.52;1752258;80;21905;-65
2022/09/02 08:27:55;;;;;;;58.90;40.85;;;;;;;21.39;38.62;100230.37;1731126;80;21883;-65
2022/09/02 08:30:22;;;;;;;57.25;39.85;;;;;;;21.49;38.79;100227.00;1750596;80;21542;-66
2022/09/02 08:32:48;;;;;;;55.03;34.27;;;;;;;21.59;38.72;100230.67;1749873;80;21494;-65
2022/09/02 08:35:15;;;;;;;46.23;31.85;;;;;;;21.70;37.43;100227.98;1750660;80;21633;-65
2022/09/02 08:37:42;;;;;;;36.90;26.90;;;;;;;21.70;37.43;100227.98;1755047;80;22149;-66
2022/09/02 08:40:14;;;;;;;41.23;27.67;;;;;;;21.62;37.64;100227.73;1750329;80;21792;-66
2022/09/02 08:42:48;;;;;;;32.13;22.07;;;;;;;21.63;37.52;100221.41;1753480;79;21491;-66
2022/09/02 08:45:24;;;;;;;21.52;16.25;;;;;;;21.73;37.30;100219.69;1749204;79;21130;-65
2022/09/02 08:48:10;;;;;;;21.65;15.13;;;;;;;21.79;36.59;100215.67;1747458;80;21526;-66
2022/09/02 08:50:37;;;;;;;14.87;10.40;;;;;;;22.02;36.43;100212.48;1736650;80;22402;-65
2022/09/02 08:53:20;;;;;;;;;;;;;;;22.02;36.43;100212.48;1743010;81;21577;-67
2022/09/02 08:55:54;;;;;;;8.58;5.90;;;;;;;22.04;34.01;100214.55;1757269;80;20144;-65
2022/09/02 08:58:24;;;;;;;8.43;6.03;;;;;;;21.94;35.71;100212.23;1765937;80;21463;-66
2022/09/02 09:01:10;;;;;;;9.40;5.12;;;;;;;21.93;35.53;100214.57;1769063;80;21041;-63
2022/09/02 09:03:59;;;;;;;7.30;3.90;;;;;;;21.97;35.61;100209.33;1773312;80;21243;-64
2022/09/02 09:06:31;;;;;;;3.35;3.05;;;;;;;22.28;35.00;100204.14;1768967;80;21608;-63
2022/09/02 09:09:12;;;;;;;2.40;2.20;;;;;;;22.28;35.00;100204.14;1769065;80;21633;-64
2022/09/02 09:11:44;;;;;;;2.60;2.37;;;;;;;22.39;34.57;100211.30;1754958;80;21470;-63
2022/09/02 09:14:41;;;;;;;3.22;2.15;;;;;;;22.33;34.67;100206.80;1766295;80;21454;-62
2022/09/02 09:17:28;;;;;;;3.40;2.00;;;;;;;22.33;34.67;100206.80;1727763;80;21826;-63
2022/09/02 09:19:59;;;;;;;3.20;2.10;;;;;;;22.32;34.62;100214.49;1758837;80;21417;-66
2022/09/02 09:22:31;;;;;;;1.90;1.80;;;;;;;22.21;34.12;100211.82;1769791;80;20942;-65
2022/09/02 09:24:57;;;;;;;2.40;1.87;;;;;;;22.19;34.09;100205.74;1770460;80;21470;-65
2022/09/02 09:27:24;;;;;;;2.50;1.75;;;;;;;22.25;33.76;100207.94;1748389;80;21469;-64
2022/09/02 09:29:51;;;;;;;2.33;1.82;;;;;;;22.39;33.92;100202.76;1763572;80;21808;-64
2022/09/02 09:32:43;;;;;;;2.30;2.10;;;;;;;22.55;33.45;100209.88;1763355;80;21565;-65
2022/09/02 09:35:13;;;;;;;3.47;2.02;;;;;;;22.62;33.51;100204.88;1725106;82;21477;-64
2022/09/02 09:37:46;;;;;;;3.33;2.20;;;;;;;22.66;33.36;100208.98;1715056;82;21514;-66
2022/09/02 09:40:25;;;;;;;2.58;2.35;;;;;;;22.73;32.96;100210.17;1727698;81;21424;-66
2022/09/02 09:43:09;;;;;;;3.60;2.67;;;;;;;22.81;33.19;100208.17;1709581;82;21822;-66
2022/09/02 09:45:41;;;;;;;4.65;2.60;;;;;;;22.83;33.23;100214.25;1731044;82;21534;-66
2022/09/02 09:48:29;;;;;;;9.88;3.05;;;;;;;22.88;33.09;100212.01;1726162;82;21569;-65
2022/09/02 09:51:03;;;;;;;4.33;2.98;;;;;;;23.12;32.96;100212.27;1732809;82;21439;-65
2022/09/02 09:53:32;;;;;;;6.47;3.67;;;;;;;23.32;32.45;100208.70;1708034;82;21555;-64
2022/09/02 09:56:16;;;;;;;3.40;3.08;;;;;;;23.18;32.00;100159.42;1743795;80;21775;-65
2022/09/02 09:58:47;;;;;;;4.12;3.35;;;;;;;23.18;32.00;100159.42;1754094;80;21585;-65
2022/09/02 10:01:33;;;;;;;3.98;3.17;;;;;;;23.29;32.33;100198.23;1755266;80;20982;-65
2022/09/02 10:04:07;;;;;;;3.37;3.00;;;;;;;23.29;32.33;100198.23;1751892;80;21513;-65
2022/09/02 10:06:38;;;;;;;4.70;3.20;;;;;;;23.23;32.45;100193.41;1751062;80;21530;-63
2022/09/02 10:09:19;;;;;;;3.87;3.47;;;;;;;23.19;32.52;100196.01;1748398;80;21907;-71
2022/09/02 10:12:04;;;;;;;3.90;3.17;;;;;;;23.18;32.41;100195.63;1748510;80;21416;-68
2022/09/02 10:14:47;;;;;;;3.75;3.35;;;;;;;23.19;32.03;100192.45;1751364;80;21487;-71
2022/09/02 10:17:44;;;;;;;4.08;2.95;;;;;;;23.19;32.03;100192.45;1752003;80;21439;-69
2022/09/02 10:20:40;;;;;;;3.80;3.47;;;;;;;23.08;32.36;100189.39;1750000;80;21566;-68
2022/09/02 10:23:27;;;;;;;3.40;3.10;;;;;;;23.16;32.22;100185.53;1750429;80;21926;-67
2022/09/02 10:26:05;;;;;;;2.98;2.70;;;;;;;23.22;32.19;100193.04;1701350;82;21614;-66
2022/09/02 10:29:28;;;;;;;2.77;2.58;;;;;;;23.36;31.80;100179.78;1755550;79;21584;-65
2022/09/02 10:32:46;;;;;;;6.33;2.95;;;;;;;23.48;31.57;100188.06;1756388;80;21640;-66
2022/09/02 10:35:28;;;;;;;5.35;3.10;;;;;;;23.48;31.57;100188.06;1750442;80;21585;-65
2022/09/02 10:38:38;;;;;;;4.28;2.60;;;;;;;23.52;31.28;100192.17;1743521;80;21959;-67
2022/09/02 10:41:34;;;;;;;4.45;2.70;;;;;;;23.65;31.26;100187.07;1747541;80;21600;-69
2022/09/02 10:44:09;;;;;;;2.67;2.47;;;;;;;23.84;31.03;100186.30;1750704;79;21143;-69
2022/09/02 10:46:44;;;;;;;4.12;2.87;;;;;;;23.98;30.70;100191.29;1717429;81;21014;-69
2022/09/02 10:49:34;;;;;;;2.52;2.33;;;;;;;24.09;30.64;100195.66;1753394;80;20995;-68
2022/09/02 10:52:24;;;;;;;3.35;2.95;;;;;;;23.88;30.06;100185.91;1724443;80;21758;-68
2022/09/02 10:55:06;;;;;;;5.30;3.25;;;;;;;23.88;30.06;100185.91;1738363;80;21455;-69
2022/09/02 10:57:37;;;;;;;4.35;3.22;;;;;;;23.91;30.38;100194.17;1748254;80;21508;-68
2022/09/02 11:00:08;;;;;;;3.22;2.35;;;;;;;23.88;29.77;100193.96;1748400;80;21580;-68
2022/09/02 11:02:56;;;;;;;2.50;2.30;;;;;;;23.88;29.77;100193.96;1757909;80;21892;-68
2022/09/02 11:06:11;;;;;;;3.27;2.55;;;;;;;23.30;30.75;100196.39;1792460;79;23199;-67
2022/09/02 11:09:03;;;;;;;4.15;2.90;;;;;;;23.87;30.07;100188.72;1761354;80;21423;-68
2022/09/02 11:11:41;;;;;;;3.55;2.33;;;;;;;24.23;29.57;100190.39;1751714;80;22208;-67
2022/09/02 11:14:20;;;;;;;3.62;2.10;;;;;;;24.23;29.57;100190.39;1767892;80;21569;-67
2022/09/02 11:16:55;;;;;;;5.03;2.30;;;;;;;24.24;29.81;100198.32;1767220;80;21493;-68
2022/09/02 11:19:45;;;;;;;2.42;1.90;;;;;;;24.35;29.47;100195.12;1759490;80;21606;-69
2022/09/02 11:22:43;;;;;;;2.90;2.10;;;;;;;24.32;29.19;100194.92;1767475;80;21486;-68
2022/09/02 11:25:25;;;;;;;2.40;2.20;;;;;;;24.32;28.94;100193.58;1763862;80;21407;-67
2022/09/02 11:28:21;;;;;;;2.62;2.00;;;;;;;24.27;29.21;100192.64;1765061;80;21487;-67
2022/09/02 11:31:09;;;;;;;2.37;2.17;;;;;;;24.27;28.77;100198.52;1762844;80;21502;-67
2022/09/02 11:34:00;;;;;;;2.15;1.95;;;;;;;23.87;28.71;100186.04;1724160;80;21454;-66
2022/09/02 11:36:26;;;;;;;2.65;2.00;;;;;;;23.87;28.71;100186.04;1763979;80;20991;-68
2022/09/02 11:39:01;;;;;;;4.97;2.10;;;;;;;23.69;29.02;100184.46;1710217;80;21569;-68
2022/09/02 11:41:57;;;;;;;2.98;2.00;;;;;;;23.62;29.36;100177.94;1761147;79;21045;-68
2022/09/02 11:44:50;;;;;;;2.47;2.27;;;;;;;23.70;29.32;100177.62;1768025;80;21476;-67
2022/09/02 11:47:29;;;;;;;6.10;2.12;;;;;;;23.98;28.61;100171.62;1762389;79;21541;-68
2022/09/02 11:50:37;;;;;;;5.55;2.52;;;;;;;24.13;28.05;100173.41;1761721;80;21482;-66